createdAt,value
2022-08-20T00:00:27.661Z,26.84
2022-08-20T00:01:59.735Z,26.81
2022-08-20T00:03:32.429Z,26.80
2022-08-20T00:05:04.293Z,26.81
2022-08-20T00:06:36.064Z,26.83
2022-08-20T00:08:08.245Z,26.81
2022-08-20T00:09:39.918Z,26.74
2022-08-20T00:11:12.242Z,26.71
2022-08-20T00:12:45.162Z,26.73
2022-08-20T00:14:17.176Z,26.75
2022-08-20T00:15:50.205Z,26.78
2022-08-20T00:17:22.007Z,26.73
2022-08-20T00:18:53.925Z,26.66
2022-08-20T00:20:26.636Z,26.65
2022-08-20T00:21:58.656Z,26.63
2022-08-20T00:23:30.325Z,26.62
2022-08-20T00:25:02.271Z,26.63
2022-08-20T00:26:34.568Z,26.61
2022-08-20T00:28:08.485Z,26.60
2022-08-20T00:29:40.307Z,26.58
2022-08-20T00:31:12.481Z,26.52
2022-08-20T00:32:48.001Z,26.43
2022-08-20T00:34:19.765Z,26.36
2022-08-20T00:35:53.289Z,26.32
2022-08-20T00:37:25.007Z,26.26
2022-08-20T00:38:56.571Z,26.20
2022-08-20T00:40:30.348Z,26.17
2022-08-20T00:42:01.941Z,26.12
2022-08-20T00:43:37.267Z,26.10
2022-08-20T00:45:09.313Z,26.09
2022-08-20T00:46:41.220Z,26.06
2022-08-20T00:48:12.985Z,26.04
2022-08-20T00:49:47.372Z,26.01
2022-08-20T00:51:27.423Z,25.98
2022-08-20T00:53:02.882Z,26.01
2022-08-20T00:54:44.957Z,25.99
2022-08-20T00:56:17.090Z,26.01
2022-08-20T00:58:00.487Z,26.02
2022-08-20T00:59:33.666Z,26.01
2022-08-20T01:01:05.813Z,26.00
2022-08-20T01:02:37.723Z,25.98
2022-08-20T01:04:11.267Z,25.96
2022-08-20T01:05:44.860Z,25.93
2022-08-20T01:07:16.422Z,25.95
2022-08-20T01:08:48.259Z,25.97
2022-08-20T01:10:21.213Z,25.98
2022-08-20T01:11:53.521Z,25.98
2022-08-20T01:13:26.042Z,25.99
2022-08-20T01:14:58.875Z,25.97
2022-08-20T01:16:31.610Z,25.97
2022-08-20T01:18:03.197Z,26.00
2022-08-20T01:19:39.508Z,26.02
2022-08-20T01:21:11.285Z,25.99
2022-08-20T01:23:04.405Z,25.98
2022-08-20T01:24:36.791Z,25.96
2022-08-20T01:26:10.012Z,26.00
2022-08-20T01:27:42.727Z,26.03
2022-08-20T01:29:21.255Z,26.01
2022-08-20T01:30:53.250Z,25.96
2022-08-20T01:32:25.276Z,25.93
2022-08-20T01:33:57.615Z,25.87
2022-08-20T01:35:29.553Z,25.81
2022-08-20T01:37:01.319Z,25.78
2022-08-20T01:38:33.049Z,25.76
2022-08-20T01:40:04.830Z,25.74
2022-08-20T01:41:53.637Z,25.70
2022-08-20T01:43:25.575Z,25.62
2022-08-20T01:44:57.521Z,25.58
2022-08-20T01:46:35.679Z,25.48
2022-08-20T01:48:09.740Z,25.43
2022-08-20T01:49:45.313Z,25.39
2022-08-20T01:51:18.366Z,25.35
2022-08-20T01:52:51.251Z,25.33
2022-08-20T01:54:23.157Z,25.30
2022-08-20T01:55:55.177Z,25.33
2022-08-20T01:57:27.278Z,25.32
2022-08-20T01:58:59.602Z,25.32
2022-08-20T02:00:32.613Z,25.29
2022-08-20T02:02:07.146Z,25.20
2022-08-20T02:03:42.924Z,25.10
2022-08-20T02:05:16.158Z,24.95
2022-08-20T02:06:56.325Z,24.89
2022-08-20T02:08:29.589Z,24.83
2022-08-20T02:10:01.545Z,24.77
2022-08-20T02:11:34.583Z,24.73
2022-08-20T02:13:07.673Z,24.67
2022-08-20T02:14:43.082Z,24.64
2022-08-20T02:16:14.823Z,24.59
2022-08-20T02:17:46.432Z,24.53
2022-08-20T02:19:19.101Z,24.50
2022-08-20T02:20:51.532Z,24.49
2022-08-20T02:22:44.225Z,24.36
2022-08-20T02:24:22.287Z,24.31
2022-08-20T02:25:54.036Z,24.22
2022-08-20T02:27:25.572Z,24.16
2022-08-20T02:28:57.578Z,24.10
2022-08-20T02:30:33.947Z,24.00
2022-08-20T02:32:28.339Z,23.87
2022-08-20T02:34:22.134Z,23.71
2022-08-20T02:35:50.065Z,23.57
2022-08-20T02:37:21.861Z,23.49
2022-08-20T02:38:53.765Z,23.44
2022-08-20T02:40:31.098Z,23.41
2022-08-20T02:42:04.200Z,23.36
2022-08-20T02:43:36.526Z,23.30
2022-08-20T02:45:08.675Z,23.27
2022-08-20T02:46:47.095Z,23.27
2022-08-20T02:48:21.117Z,23.22
2022-08-20T02:49:54.442Z,23.20
2022-08-20T02:51:30.484Z,23.18
2022-08-20T02:53:02.375Z,23.06
2022-08-20T02:54:34.473Z,23.03
2022-08-20T02:56:06.441Z,23.04
2022-08-20T02:57:38.616Z,23.07
2022-08-20T02:59:10.379Z,23.06
2022-08-20T03:00:50.626Z,23.10
2022-08-20T03:02:22.708Z,23.18
2022-08-20T03:03:57.169Z,23.24
2022-08-20T03:05:28.718Z,23.17
2022-08-20T03:07:00.428Z,23.04
2022-08-20T03:08:32.111Z,22.92
2022-08-20T03:10:03.866Z,22.86
2022-08-20T03:11:35.983Z,22.76
2022-08-20T03:13:11.488Z,22.70
2022-08-20T03:14:43.357Z,22.64
2022-08-20T03:16:14.933Z,22.61
2022-08-20T03:17:47.036Z,22.62
2022-08-20T03:19:18.737Z,22.64
2022-08-20T03:20:52.175Z,22.63
2022-08-20T03:22:23.943Z,22.60
2022-08-20T03:23:56.629Z,22.56
2022-08-20T03:25:29.238Z,22.57
2022-08-20T03:27:00.774Z,22.59
2022-08-20T03:28:32.476Z,22.56
2022-08-20T03:30:08.594Z,22.52
2022-08-20T03:31:40.330Z,22.48
2022-08-20T03:33:11.928Z,22.48
2022-08-20T03:34:43.728Z,22.42
2022-08-20T03:36:15.389Z,22.34
2022-08-20T03:37:52.552Z,22.33
2022-08-20T03:39:25.743Z,22.39
2022-08-20T03:40:57.966Z,22.47
2022-08-20T03:42:29.650Z,22.52
2022-08-20T03:44:01.226Z,22.54
2022-08-20T03:45:33.356Z,22.61
2022-08-20T03:47:09.745Z,22.68
2022-08-20T03:48:41.447Z,22.69
2022-08-20T03:50:14.692Z,22.69
2022-08-20T03:51:58.020Z,22.65
2022-08-20T03:53:32.997Z,22.57
2022-08-20T03:55:05.396Z,22.53
2022-08-20T03:56:37.409Z,22.55
2022-08-20T03:58:09.167Z,22.57
2022-08-20T03:59:41.216Z,22.61
2022-08-20T04:01:44.794Z,22.62
2022-08-20T04:03:05.117Z,22.62
2022-08-20T04:04:36.718Z,22.54
2022-08-20T04:06:08.300Z,22.48
2022-08-20T04:07:40.507Z,22.44
2022-08-20T04:09:12.384Z,22.42
2022-08-20T04:10:45.696Z,22.29
2022-08-20T04:12:17.946Z,22.27
2022-08-20T04:13:49.639Z,22.32
2022-08-20T04:15:21.483Z,22.36
2022-08-20T04:16:53.009Z,22.43
2022-08-20T04:18:25.859Z,22.49
2022-08-20T04:19:57.420Z,22.50
2022-08-20T04:21:32.707Z,22.54
2022-08-20T04:23:05.271Z,22.58
2022-08-20T04:24:37.517Z,22.61
2022-08-20T04:26:09.322Z,22.62
2022-08-20T04:27:40.910Z,22.65
2022-08-20T04:29:12.761Z,22.66
2022-08-20T04:30:47.433Z,22.67
2022-08-20T04:32:23.506Z,22.73
2022-08-20T04:33:55.209Z,22.78
2022-08-20T04:35:26.984Z,22.79
2022-08-20T04:36:58.654Z,22.80
2022-08-20T04:38:49.856Z,22.85
2022-08-20T04:40:40.732Z,22.92
2022-08-20T04:42:12.345Z,22.95
2022-08-20T04:43:44.014Z,23.00
2022-08-20T04:45:15.664Z,23.04
2022-08-20T04:46:47.389Z,23.05
2022-08-20T04:48:19.253Z,22.97
2022-08-20T04:49:50.863Z,22.97
2022-08-20T04:51:23.220Z,22.99
2022-08-20T04:52:57.506Z,23.02
2022-08-20T04:54:29.265Z,23.06
2022-08-20T04:56:01.379Z,23.10
2022-08-20T04:57:33.285Z,23.14
2022-08-20T04:59:05.142Z,23.16
2022-08-20T05:00:36.797Z,23.23
2022-08-20T05:02:08.598Z,23.26
2022-08-20T05:03:40.582Z,23.22
2022-08-20T05:05:12.244Z,23.23
2022-08-20T05:06:44.843Z,23.25
2022-08-20T05:08:16.735Z,23.30
2022-08-20T05:09:51.805Z,23.36
2022-08-20T05:11:32.620Z,23.39
2022-08-20T05:13:07.476Z,23.49
2022-08-20T05:14:39.044Z,23.61
2022-08-20T05:16:11.262Z,23.69
2022-08-20T05:17:43.053Z,23.78
2022-08-20T05:19:14.670Z,23.89
2022-08-20T05:20:46.515Z,24.00
2022-08-20T05:22:18.588Z,24.11
2022-08-20T05:23:50.260Z,24.22
2022-08-20T05:25:22.229Z,24.31
2022-08-20T05:26:56.177Z,24.33
2022-08-20T05:28:30.495Z,24.25
2022-08-20T05:30:07.612Z,24.15
2022-08-20T05:31:42.583Z,24.00
2022-08-20T05:33:17.063Z,23.97
2022-08-20T05:34:49.325Z,24.06
2022-08-20T05:36:21.930Z,24.20
2022-08-20T05:37:54.261Z,24.35
2022-08-20T05:39:26.522Z,24.37
2022-08-20T05:40:58.112Z,24.49
2022-08-20T05:42:30.658Z,24.63
2022-08-20T05:44:02.322Z,24.75
2022-08-20T05:45:35.424Z,24.79
2022-08-20T05:47:07.119Z,24.84
2022-08-20T05:48:40.182Z,24.83
2022-08-20T05:50:20.660Z,24.85
2022-08-20T05:51:55.103Z,24.84
2022-08-20T05:53:27.105Z,24.82
2022-08-20T05:54:58.771Z,24.87
2022-08-20T05:56:30.985Z,24.93
2022-08-20T05:58:05.874Z,25.07
2022-08-20T05:59:39.712Z,25.14
2022-08-20T06:01:12.121Z,25.18
2022-08-20T06:03:02.234Z,25.28
2022-08-20T06:04:34.418Z,25.29
2022-08-20T06:06:17.875Z,25.24
2022-08-20T06:08:07.094Z,25.19
2022-08-20T06:09:42.276Z,25.12
2022-08-20T06:11:16.130Z,25.12
2022-08-20T06:12:47.798Z,25.19
2022-08-20T06:14:20.474Z,25.33
2022-08-20T06:15:52.311Z,25.34
2022-08-20T06:17:23.934Z,25.45
2022-08-20T06:18:55.869Z,25.60
2022-08-20T06:20:30.838Z,25.68
2022-08-20T06:22:08.652Z,25.89
2022-08-20T06:23:57.714Z,26.12
2022-08-20T06:25:37.933Z,26.29
2022-08-20T06:27:09.704Z,26.39
2022-08-20T06:28:41.469Z,26.52
2022-08-20T06:30:13.570Z,26.68
2022-08-20T06:31:46.517Z,26.88
2022-08-20T06:33:18.142Z,27.10
2022-08-20T06:34:51.547Z,27.29
2022-08-20T06:36:25.100Z,27.55
2022-08-20T06:38:00.548Z,27.76
2022-08-20T06:39:32.355Z,27.93
2022-08-20T06:41:04.280Z,28.05
2022-08-20T06:42:36.545Z,28.24
2022-08-20T06:44:08.776Z,28.39
2022-08-20T06:45:40.976Z,28.58
2022-08-20T06:47:14.613Z,28.64
2022-08-20T06:48:46.230Z,28.54
2022-08-20T06:50:19.042Z,28.54
2022-08-20T06:51:52.041Z,28.61
2022-08-20T06:53:24.839Z,28.76
2022-08-20T06:54:56.393Z,28.79
2022-08-20T06:56:28.255Z,28.91
2022-08-20T06:58:00.768Z,29.01
2022-08-20T06:59:32.903Z,29.06
2022-08-20T07:01:08.738Z,29.21
2022-08-20T07:02:43.067Z,29.33
2022-08-20T07:04:15.966Z,29.40
2022-08-20T07:05:47.575Z,29.53
2022-08-20T07:07:20.020Z,29.67
2022-08-20T07:08:52.464Z,29.67
2022-08-20T07:10:25.362Z,29.53
2022-08-20T07:11:57.525Z,29.56
2022-08-20T07:13:29.236Z,29.71
2022-08-20T07:15:00.865Z,29.74
2022-08-20T07:16:33.109Z,29.82
2022-08-20T07:18:05.095Z,29.92
2022-08-20T07:19:36.926Z,30.09
2022-08-20T07:21:08.557Z,30.25
2022-08-20T07:22:41.153Z,30.39
2022-08-20T07:24:12.824Z,30.54
2022-08-20T07:25:44.763Z,30.58
2022-08-20T07:27:20.310Z,30.51
2022-08-20T07:28:52.286Z,30.52
2022-08-20T07:30:56.829Z,30.56
2022-08-20T07:32:37.139Z,30.64
2022-08-20T07:34:11.844Z,30.65
2022-08-20T07:35:44.208Z,30.78
2022-08-20T07:37:15.856Z,30.88
2022-08-20T07:38:48.499Z,30.86
2022-08-20T07:40:25.853Z,30.89
2022-08-20T07:42:03.857Z,31.09
2022-08-20T07:43:35.565Z,31.26
2022-08-20T07:45:09.014Z,31.40
2022-08-20T07:46:40.624Z,31.52
2022-08-20T07:48:12.926Z,31.52
2022-08-20T07:50:01.404Z,31.66
2022-08-20T07:51:33.076Z,31.74
2022-08-20T07:53:04.887Z,31.78
2022-08-20T07:54:38.205Z,31.89
2022-08-20T07:56:11.473Z,32.04
2022-08-20T07:57:43.888Z,32.23
2022-08-20T07:59:15.983Z,32.37
2022-08-20T08:00:47.972Z,32.47
2022-08-20T08:02:20.188Z,32.59
2022-08-20T08:03:52.174Z,32.49
2022-08-20T08:05:24.150Z,32.38
2022-08-20T08:06:57.840Z,32.37
2022-08-20T08:08:29.851Z,32.43
2022-08-20T08:10:01.784Z,32.47
2022-08-20T08:11:33.910Z,32.58
2022-08-20T08:13:06.349Z,32.59
2022-08-20T08:14:37.954Z,32.62
2022-08-20T08:16:09.683Z,32.65
2022-08-20T08:17:42.154Z,32.73
2022-08-20T08:19:15.213Z,32.78
2022-08-20T08:20:47.414Z,32.63
2022-08-20T08:22:19.702Z,32.65
2022-08-20T08:23:51.598Z,32.72
2022-08-20T08:25:23.613Z,32.60
2022-08-20T08:26:55.264Z,32.50
2022-08-20T08:28:29.790Z,32.35
2022-08-20T08:30:01.649Z,32.44
2022-08-20T08:31:34.033Z,32.63
2022-08-20T08:33:24.299Z,32.58
2022-08-20T08:34:56.184Z,32.72
2022-08-20T08:36:27.976Z,32.81
2022-08-20T08:38:02.013Z,33.00
2022-08-20T08:39:34.901Z,33.09
2022-08-20T08:41:22.709Z,33.02
2022-08-20T08:42:58.579Z,33.00
2022-08-20T08:44:31.627Z,32.91
2022-08-20T08:46:06.702Z,32.83
2022-08-20T08:47:39.334Z,32.85
2022-08-20T08:49:13.109Z,32.84
2022-08-20T08:50:53.483Z,32.93
2022-08-20T08:52:30.050Z,32.97
2022-08-20T08:54:06.662Z,33.12
2022-08-20T08:55:39.014Z,33.29
2022-08-20T08:57:10.790Z,33.40
2022-08-20T08:58:44.065Z,33.62
2022-08-20T09:00:19.787Z,33.79
2022-08-20T09:01:56.589Z,33.94
2022-08-20T09:03:31.285Z,33.83
2022-08-20T09:05:03.600Z,33.77
2022-08-20T09:06:35.441Z,33.66
2022-08-20T09:08:07.845Z,33.73
2022-08-20T09:09:39.892Z,33.74
2022-08-20T09:11:11.737Z,33.52
2022-08-20T09:12:47.763Z,33.42
2022-08-20T09:14:20.423Z,33.27
2022-08-20T09:15:52.096Z,33.21
2022-08-20T09:17:24.482Z,33.29
2022-08-20T09:18:56.173Z,33.30
2022-08-20T09:20:27.957Z,33.44
2022-08-20T09:21:59.591Z,33.57
2022-08-20T09:23:31.469Z,33.68
2022-08-20T09:25:06.794Z,33.79
2022-08-20T09:26:39.252Z,33.95
2022-08-20T09:28:11.238Z,33.95
2022-08-20T09:29:45.152Z,34.05
2022-08-20T09:31:18.295Z,34.07
2022-08-20T09:32:50.221Z,34.00
2022-08-20T09:34:21.813Z,34.12
2022-08-20T09:35:53.464Z,34.21
2022-08-20T09:37:25.657Z,34.27
2022-08-20T09:38:57.385Z,34.27
2022-08-20T09:40:29.088Z,34.03
2022-08-20T09:42:20.559Z,33.77
2022-08-20T09:43:52.766Z,33.67
2022-08-20T09:45:25.173Z,33.63
2022-08-20T09:46:56.817Z,33.61
2022-08-20T09:48:32.086Z,33.73
2022-08-20T09:50:04.638Z,33.83
2022-08-20T09:51:36.474Z,33.97
2022-08-20T09:53:10.142Z,34.20
2022-08-20T09:54:46.273Z,34.29
2022-08-20T09:56:18.863Z,34.29
2022-08-20T09:57:50.645Z,34.29
2022-08-20T09:59:22.309Z,34.27
2022-08-20T10:00:54.227Z,34.24
2022-08-20T10:02:27.182Z,34.20
2022-08-20T10:04:00.383Z,34.11
2022-08-20T10:05:32.013Z,34.08
2022-08-20T10:07:06.873Z,34.02
2022-08-20T10:08:38.751Z,33.87
2022-08-20T10:10:11.312Z,33.67
2022-08-20T10:11:43.066Z,33.52
2022-08-20T10:13:15.443Z,33.49
2022-08-20T10:14:47.684Z,33.47
2022-08-20T10:16:19.729Z,33.50
2022-08-20T10:17:51.985Z,33.54
2022-08-20T10:19:23.662Z,33.60
2022-08-20T10:20:56.377Z,33.58
2022-08-20T10:22:27.978Z,33.61
2022-08-20T10:23:59.709Z,33.72
2022-08-20T10:25:31.558Z,33.83
2022-08-20T10:27:03.401Z,33.91
2022-08-20T10:28:35.130Z,33.95
2022-08-20T10:30:07.078Z,34.07
2022-08-20T10:31:38.806Z,34.07
2022-08-20T10:33:10.721Z,34.06
2022-08-20T10:34:43.024Z,34.08
2022-08-20T10:36:16.482Z,34.13
2022-08-20T10:37:48.498Z,34.15
2022-08-20T10:39:20.255Z,34.13
2022-08-20T10:40:52.611Z,34.28
2022-08-20T10:42:24.495Z,34.48
2022-08-20T10:43:56.511Z,34.56
2022-08-20T10:45:28.353Z,34.51
2022-08-20T10:47:12.765Z,34.40
2022-08-20T10:48:45.360Z,34.19
2022-08-20T10:50:17.611Z,34.06
2022-08-20T10:51:49.411Z,33.98
2022-08-20T10:53:21.697Z,33.87
2022-08-20T10:54:54.127Z,33.86
2022-08-20T10:56:25.969Z,33.98
2022-08-20T10:57:58.312Z,33.99
2022-08-20T10:59:30.323Z,33.97
2022-08-20T11:01:02.412Z,34.00
2022-08-20T11:02:34.200Z,33.90
2022-08-20T11:04:06.084Z,33.84
2022-08-20T11:05:37.828Z,33.84
2022-08-20T11:07:19.418Z,33.84
2022-08-20T11:08:51.281Z,33.86
2022-08-20T11:10:26.200Z,33.86
2022-08-20T11:11:57.785Z,33.88
2022-08-20T11:13:29.479Z,33.99
2022-08-20T11:15:01.541Z,34.15
2022-08-20T11:16:33.882Z,34.28
2022-08-20T11:18:05.958Z,34.52
2022-08-20T11:19:43.823Z,34.78
2022-08-20T11:21:15.786Z,35.01
2022-08-20T11:22:49.093Z,35.09
2022-08-20T11:24:20.819Z,35.08
2022-08-20T11:25:52.491Z,35.09
2022-08-20T11:27:25.472Z,35.11
2022-08-20T11:28:57.071Z,35.19
2022-08-20T11:30:29.778Z,35.06
2022-08-20T11:32:01.467Z,34.82
2022-08-20T11:33:33.152Z,34.69
2022-08-20T11:35:24.519Z,34.74
2022-08-20T11:36:57.320Z,34.68
2022-08-20T11:38:28.964Z,34.65
2022-08-20T11:40:00.754Z,34.62
2022-08-20T11:41:32.415Z,34.53
2022-08-20T11:43:14.695Z,34.25
2022-08-20T11:44:47.613Z,34.05
2022-08-20T11:46:19.173Z,33.83
2022-08-20T11:47:50.931Z,33.75
2022-08-20T11:49:22.552Z,33.80
2022-08-20T11:50:54.180Z,33.77
2022-08-20T11:52:26.448Z,33.74
2022-08-20T11:54:00.491Z,33.69
2022-08-20T11:55:33.563Z,33.67
2022-08-20T11:57:05.132Z,33.67
2022-08-20T11:58:36.684Z,33.73
2022-08-20T12:00:14.184Z,33.83
2022-08-20T12:02:01.925Z,33.94
2022-08-20T12:03:34.155Z,34.05
2022-08-20T12:05:06.017Z,34.08
2022-08-20T12:06:37.749Z,34.10
2022-08-20T12:08:09.451Z,34.16
2022-08-20T12:09:50.292Z,34.13
2022-08-20T12:11:22.687Z,34.27
2022-08-20T12:12:54.960Z,34.34
2022-08-20T12:14:27.082Z,34.39
2022-08-20T12:15:58.747Z,34.50
2022-08-20T12:17:30.714Z,34.59
2022-08-20T12:19:02.382Z,34.69
2022-08-20T12:20:34.035Z,34.89
2022-08-20T12:22:24.931Z,34.91
2022-08-20T12:23:57.178Z,34.85
2022-08-20T12:25:29.751Z,34.89
2022-08-20T12:27:15.748Z,34.91
2022-08-20T12:28:48.669Z,35.02
2022-08-20T12:30:21.384Z,35.09
2022-08-20T12:31:53.202Z,35.22
2022-08-20T12:33:24.999Z,35.33
2022-08-20T12:34:57.205Z,35.35
2022-08-20T12:36:28.915Z,35.18
2022-08-20T12:38:05.146Z,35.14
2022-08-20T12:39:40.526Z,35.11
2022-08-20T12:41:13.001Z,35.01
2022-08-20T12:42:45.264Z,34.91
2022-08-20T12:44:16.955Z,34.82
2022-08-20T12:45:48.591Z,34.77
2022-08-20T12:47:24.113Z,34.72
2022-08-20T12:48:55.924Z,34.69
2022-08-20T12:50:31.392Z,34.71
2022-08-20T12:52:03.736Z,34.67
2022-08-20T12:53:35.432Z,34.68
2022-08-20T12:55:07.698Z,34.66
2022-08-20T12:56:39.773Z,34.67
2022-08-20T12:58:11.505Z,34.66
2022-08-20T12:59:43.420Z,34.63
2022-08-20T13:01:15.943Z,34.57
2022-08-20T14:35:06.362Z,22.99
2022-08-20T14:36:38.165Z,23.16
2022-08-20T14:38:10.260Z,23.28
2022-08-20T14:39:42.768Z,23.41
2022-08-20T14:41:15.563Z,23.58
2022-08-20T14:42:47.796Z,23.72
2022-08-20T14:52:39.025Z,24.50
2022-08-20T14:54:11.923Z,24.60
2022-08-20T14:55:43.797Z,24.74
2022-08-20T14:57:15.866Z,24.84
2022-08-20T14:58:48.236Z,24.94
2022-08-20T15:00:24.614Z,25.11
2022-08-20T15:01:56.900Z,25.31
2022-08-20T15:03:30.777Z,25.52
2022-08-20T15:05:02.978Z,25.74
2022-08-20T15:06:38.771Z,25.99
2022-08-20T15:08:11.122Z,26.18
2022-08-20T15:09:43.319Z,26.33
2022-08-20T15:11:15.387Z,26.47
2022-08-20T15:12:47.226Z,26.63
2022-08-20T15:14:19.573Z,26.81
2022-08-20T15:15:51.448Z,26.88
2022-08-20T15:17:24.381Z,26.94
2022-08-20T15:18:56.563Z,26.92
2022-08-20T15:20:31.896Z,26.92
2022-08-20T15:22:03.644Z,26.83
2022-08-20T15:23:35.530Z,26.75
2022-08-20T15:25:08.062Z,26.64
2022-08-20T15:26:40.327Z,26.61
2022-08-20T15:28:15.380Z,26.64
2022-08-20T15:29:51.374Z,26.70
2022-08-20T15:31:28.208Z,26.77
2022-08-20T15:33:00.832Z,26.86
2022-08-20T15:34:32.812Z,26.97
2022-08-20T15:36:05.968Z,27.02
2022-08-20T15:37:42.235Z,27.08
2022-08-20T15:39:14.703Z,26.98
2022-08-20T15:40:47.152Z,26.95
2022-08-20T15:42:19.969Z,26.98
2022-08-20T15:43:51.806Z,27.04
2022-08-20T15:45:23.613Z,27.09
2022-08-20T15:46:55.628Z,27.07
2022-08-20T15:48:34.402Z,27.06
2022-08-20T15:50:09.363Z,27.08
2022-08-20T15:51:49.793Z,27.11
2022-08-20T15:53:27.839Z,27.13
2022-08-20T16:00:16.390Z,26.83
2022-08-20T16:02:03.190Z,26.72
2022-08-20T16:03:38.972Z,26.64
2022-08-20T16:05:11.141Z,26.46
2022-08-20T16:06:43.092Z,26.37
2022-08-20T16:08:22.660Z,26.27
2022-08-20T16:10:02.398Z,26.22
2022-08-20T16:11:37.135Z,26.24
2022-08-20T16:13:10.609Z,26.26
2022-08-20T16:14:43.025Z,26.27
2022-08-20T16:16:17.046Z,26.31
2022-08-20T16:18:12.102Z,26.30
2022-08-20T16:19:55.847Z,26.29
2022-08-20T16:21:32.085Z,26.28
2022-08-20T16:23:04.622Z,26.27
2022-08-20T16:24:36.522Z,26.30
2022-08-20T16:26:26.907Z,26.28
2022-08-20T16:28:11.350Z,26.27
2022-08-20T16:30:03.556Z,26.24
2022-08-20T16:31:47.259Z,26.16
2022-08-20T16:33:30.485Z,26.14
2022-08-20T16:35:03.995Z,26.12
2022-08-20T16:36:38.145Z,26.10
2022-08-20T16:38:12.856Z,26.06
2022-08-20T16:40:03.686Z,25.97
2022-08-20T16:41:38.378Z,25.93
2022-08-20T16:43:10.839Z,25.84
2022-08-20T16:44:43.566Z,25.73
2022-08-20T16:46:19.439Z,25.64
2022-08-20T16:47:51.877Z,25.59
2022-08-20T16:49:23.704Z,25.59
2022-08-20T16:50:56.881Z,25.61
2022-08-20T16:52:28.790Z,25.54
2022-08-20T16:54:01.241Z,25.43
2022-08-20T16:55:33.623Z,25.41
2022-08-20T16:57:05.814Z,25.43
2022-08-20T16:58:37.662Z,25.43
2022-08-20T17:00:14.963Z,25.45
2022-08-20T17:02:10.146Z,25.41
2022-08-20T17:03:49.772Z,25.28
2022-08-20T17:05:22.791Z,25.19
2022-08-20T17:06:55.566Z,25.02
2022-08-20T17:08:28.574Z,24.95
2022-08-20T17:10:18.592Z,24.91
2022-08-20T17:11:50.524Z,24.86
2022-08-20T17:13:24.012Z,24.82
2022-08-20T17:15:00.441Z,24.73
2022-08-20T17:16:40.921Z,24.56
2022-08-20T17:18:25.987Z,24.31
2022-08-20T17:19:58.998Z,23.99
2022-08-20T17:21:33.106Z,23.71
2022-08-20T17:23:18.585Z,23.56
2022-08-20T17:24:50.594Z,23.42
2022-08-20T17:26:25.422Z,23.38
2022-08-20T17:27:57.915Z,23.23
2022-08-20T17:29:31.600Z,23.08
2022-08-20T17:31:03.881Z,23.05
2022-08-20T17:32:35.872Z,23.09
2022-08-20T17:34:14.892Z,23.10
2022-08-20T17:35:55.276Z,23.00
2022-08-20T17:37:28.421Z,22.83
2022-08-20T17:39:05.558Z,22.68
2022-08-20T17:40:47.299Z,22.57
2022-08-20T17:42:25.522Z,22.37
2022-08-20T17:43:58.763Z,22.27
2022-08-20T17:45:41.434Z,22.19
2022-08-20T17:47:17.702Z,22.02
2022-08-20T17:48:53.050Z,21.86
2022-08-20T17:50:31.168Z,21.77
2022-08-20T17:52:05.558Z,21.66
2022-08-20T17:53:40.733Z,21.59
2022-08-20T17:55:14.935Z,21.45
2022-08-20T17:56:48.815Z,21.41
2022-08-20T17:58:21.283Z,21.36
2022-08-20T18:00:02.543Z,21.33
2022-08-20T18:01:36.016Z,21.38
2022-08-20T18:03:17.160Z,21.46
2022-08-20T18:04:49.741Z,21.58
2022-08-20T18:06:38.550Z,21.63
2022-08-20T18:08:30.726Z,21.77
2022-08-20T18:10:22.125Z,21.87
2022-08-20T18:12:03.609Z,21.96
2022-08-20T18:13:36.117Z,22.04
2022-08-20T18:15:32.397Z,22.04
2022-08-20T18:17:23.772Z,22.04
2022-08-20T18:19:22.015Z,22.00
2022-08-20T18:21:11.771Z,21.98
2022-08-20T18:22:48.013Z,22.02
2022-08-20T18:24:21.488Z,22.02
2022-08-20T18:25:58.514Z,22.01
2022-08-20T18:27:36.935Z,22.00
2022-08-20T18:29:13.307Z,22.06
2022-08-20T18:31:01.624Z,22.03
2022-08-20T18:32:36.554Z,22.00
2022-08-20T18:34:12.727Z,22.00
2022-08-20T18:35:46.437Z,21.90
2022-08-20T18:37:18.343Z,21.76
2022-08-20T18:39:16.269Z,21.63
2022-08-20T18:40:52.130Z,21.57
2022-08-20T18:42:30.155Z,21.52
2022-08-20T18:44:12.691Z,21.44
2022-08-20T18:45:45.219Z,21.42
2022-08-20T18:47:20.250Z,21.44
2022-08-20T18:48:54.349Z,21.41
2022-08-20T18:50:39.700Z,21.36
2022-08-20T18:52:13.340Z,21.29
2022-08-20T18:53:51.879Z,21.26
2022-08-20T18:55:29.618Z,21.23
2022-08-20T18:57:05.717Z,21.15
2022-08-20T18:58:56.845Z,21.08
2022-08-20T19:00:32.250Z,20.98
2022-08-20T19:02:14.472Z,20.92
2022-08-20T19:03:47.182Z,20.86
2022-08-20T19:05:23.769Z,20.75
2022-08-20T19:07:05.517Z,20.71
2022-08-20T19:08:49.500Z,20.67
2022-08-20T19:10:28.209Z,20.65
2022-08-20T19:12:03.047Z,20.68
2022-08-20T19:13:37.671Z,20.71
2022-08-20T19:15:14.395Z,20.76
2022-08-20T19:16:48.082Z,20.77
2022-08-20T19:18:26.896Z,20.78
2022-08-20T19:20:01.847Z,20.75
2022-08-20T19:21:37.279Z,20.68
2022-08-20T19:23:17.112Z,20.61
2022-08-20T19:24:53.084Z,20.60
2022-08-20T19:26:29.311Z,20.64
2022-08-20T19:28:02.924Z,20.70
2022-08-20T19:29:37.935Z,20.76
2022-08-20T19:31:10.781Z,20.78
2022-08-20T19:32:51.393Z,20.85
2022-08-20T19:34:24.600Z,20.89
2022-08-20T19:35:56.551Z,20.89
2022-08-20T19:37:39.777Z,20.93
2022-08-20T19:39:21.191Z,20.96
2022-08-20T19:41:10.904Z,20.95
2022-08-20T19:42:43.531Z,21.01
2022-08-20T19:44:24.048Z,21.06
2022-08-20T19:45:55.780Z,21.10
2022-08-20T19:47:27.549Z,21.17
2022-08-20T19:48:59.268Z,21.17
2022-08-20T19:50:42.852Z,21.18
2022-08-20T19:52:29.709Z,21.19
2022-08-20T19:54:01.281Z,21.19
2022-08-20T19:55:33.914Z,21.20
2022-08-20T19:57:07.056Z,21.22
2022-08-20T19:58:39.396Z,21.20
2022-08-20T20:00:12.633Z,21.15
2022-08-20T20:01:51.934Z,21.00
2022-08-20T20:03:27.980Z,20.81
2022-08-20T20:05:00.134Z,20.69
2022-08-20T20:06:36.657Z,20.62
2022-08-20T20:08:08.311Z,20.57
2022-08-20T20:09:40.218Z,20.55
2022-08-20T20:11:16.188Z,20.57
2022-08-20T20:12:47.790Z,20.62
2022-08-20T20:14:22.504Z,20.60
2022-08-20T20:15:55.213Z,20.61
2022-08-20T20:17:30.544Z,20.65
2022-08-20T20:19:24.699Z,20.65
2022-08-20T20:20:58.230Z,20.56
2022-08-20T20:22:31.101Z,20.48
2022-08-20T20:24:03.469Z,20.45
2022-08-20T20:25:35.215Z,20.42
2022-08-20T20:27:20.941Z,20.39
2022-08-20T20:28:54.419Z,20.44
2022-08-20T20:30:29.496Z,20.45
2022-08-20T20:32:01.898Z,20.53
2022-08-20T20:33:40.866Z,20.62
2022-08-20T20:35:26.603Z,20.67
2022-08-20T20:37:05.681Z,20.70
2022-08-20T20:38:38.390Z,20.72
2022-08-20T20:40:19.404Z,20.81
2022-08-20T20:41:56.749Z,20.85
2022-08-20T20:43:30.296Z,20.85
2022-08-20T20:45:02.345Z,20.84
2022-08-20T20:46:34.893Z,20.84
2022-08-20T20:48:14.944Z,20.88
2022-08-20T20:49:54.481Z,20.88
2022-08-20T20:51:29.687Z,20.84
2022-08-20T20:53:01.686Z,20.82
2022-08-20T20:54:44.055Z,20.80
2022-08-20T20:56:31.885Z,20.74
2022-08-20T20:58:04.014Z,20.68
2022-08-20T20:59:36.404Z,20.67
2022-08-20T21:01:08.621Z,20.67
2022-08-20T21:02:40.260Z,20.67
2022-08-20T21:04:11.873Z,20.69
2022-08-20T21:05:43.421Z,20.67
2022-08-20T21:07:16.143Z,20.69
2022-08-20T21:08:47.925Z,20.72
2022-08-20T21:10:21.295Z,20.71
2022-08-20T21:11:53.248Z,20.69
2022-08-20T21:13:25.064Z,20.72
2022-08-20T21:14:56.960Z,20.75
2022-08-20T21:16:29.052Z,20.77
2022-08-20T21:18:01.378Z,20.80
2022-08-20T21:19:33.179Z,20.82
2022-08-20T21:21:05.415Z,20.82
2022-08-20T21:22:37.399Z,20.81
2022-08-20T21:24:08.991Z,20.82
2022-08-20T21:25:40.581Z,20.87
2022-08-20T21:27:12.681Z,20.87
2022-08-20T21:28:44.495Z,20.81
2022-08-20T21:30:16.686Z,20.75
2022-08-20T21:31:48.375Z,20.64
2022-08-20T21:33:21.526Z,20.51
2022-08-20T21:34:53.271Z,20.45
2022-08-20T21:36:25.358Z,20.46
2022-08-20T21:37:57.000Z,20.47
2022-08-20T21:39:28.694Z,20.52
2022-08-20T21:41:00.807Z,20.55
2022-08-20T21:42:36.974Z,20.56
2022-08-20T21:44:14.451Z,20.55
2022-08-20T21:45:47.004Z,20.58
2022-08-20T21:47:21.836Z,20.55
2022-08-20T21:48:56.342Z,20.53
2022-08-20T21:50:28.006Z,20.51
2022-08-20T21:52:00.057Z,20.51
2022-08-20T21:53:31.734Z,20.49
2022-08-20T21:55:03.575Z,20.49
2022-08-20T21:56:35.264Z,20.50
2022-08-20T21:58:06.893Z,20.51
2022-08-20T21:59:38.600Z,20.54
2022-08-20T22:01:10.254Z,20.59
2022-08-20T22:02:42.420Z,20.61